sensor_id;sensor_type;location;lat;lon;timestamp;P1;durP1;ratioP1;P2;durP2;ratioP2
16770;SDS011;8503;52.472;13.344;2023-04-25T00:00:21;3.30;;;1.48;;
16770;SDS011;8503;52.472;13.344;2023-04-25T00:01:44;3.47;;;1.60;;
16770;SDS011;8503;52.472;13.344;2023-04-25T00:03:08;2.70;;;1.90;;
16770;SDS011;8503;52.472;13.344;2023-04-25T00:04:32;3.67;;;1.70;;
16770;SDS011;8503;52.472;13.344;2023-04-25T00:05:58;3.17;;;1.40;;
16770;SDS011;8503;52.472;13.344;2023-04-25T00:07:24;4.80;;;1.50;;
16770;SDS011;8503;52.472;13.344;2023-04-25T00:08:50;4.90;;;1.30;;
16770;SDS011;8503;52.472;13.344;2023-04-25T00:10:13;2.97;;;1.50;;
16770;SDS011;8503;52.472;13.344;2023-04-25T00:11:37;1.30;;;1.20;;
16770;SDS011;8503;52.472;13.344;2023-04-25T00:13:00;5.95;;;1.73;;
16770;SDS011;8503;52.472;13.344;2023-04-25T00:14:24;5.40;;;1.52;;
16770;SDS011;8503;52.472;13.344;2023-04-25T00:15:47;4.28;;;1.52;;
16770;SDS011;8503;52.472;13.344;2023-04-25T00:17:14;2.58;;;1.40;;
16770;SDS011;8503;52.472;13.344;2023-04-25T00:18:41;4.13;;;1.60;;
16770;SDS011;8503;52.472;13.344;2023-04-25T00:20:04;2.90;;;1.60;;
16770;SDS011;8503;52.472;13.344;2023-04-25T00:21:31;5.97;;;1.73;;
16770;SDS011;8503;52.472;13.344;2023-04-25T00:22:54;3.22;;;1.58;;
16770;SDS011;8503;52.472;13.344;2023-04-25T00:24:18;3.28;;;1.38;;
16770;SDS011;8503;52.472;13.344;2023-04-25T00:25:41;4.35;;;1.85;;
16770;SDS011;8503;52.472;13.344;2023-04-25T00:27:04;3.80;;;1.75;;
16770;SDS011;8503;52.472;13.344;2023-04-25T00:28:28;3.75;;;1.65;;
16770;SDS011;8503;52.472;13.344;2023-04-25T00:29:52;4.43;;;1.33;;
16770;SDS011;8503;52.472;13.344;2023-04-25T00:31:15;5.07;;;1.67;;
16770;SDS011;8503;52.472;13.344;2023-04-25T00:32:39;2.67;;;1.45;;
16770;SDS011;8503;52.472;13.344;2023-04-25T00:34:09;5.22;;;1.70;;
16770;SDS011;8503;52.472;13.344;2023-04-25T00:35:33;3.35;;;1.60;;
16770;SDS011;8503;52.472;13.344;2023-04-25T00:37:02;3.35;;;1.48;;
16770;SDS011;8503;52.472;13.344;2023-04-25T00:38:27;5.05;;;1.80;;
16770;SDS011;8503;52.472;13.344;2023-04-25T00:39:51;6.88;;;1.60;;
16770;SDS011;8503;52.472;13.344;2023-04-25T00:41:16;8.52;;;1.77;;
16770;SDS011;8503;52.472;13.344;2023-04-25T00:42:40;3.70;;;1.63;;
16770;SDS011;8503;52.472;13.344;2023-04-25T00:44:04;4.93;;;1.40;;
16770;SDS011;8503;52.472;13.344;2023-04-25T00:45:32;3.20;;;1.88;;
16770;SDS011;8503;52.472;13.344;2023-04-25T00:46:58;1.92;;;1.73;;
16770;SDS011;8503;52.472;13.344;2023-04-25T00:48:21;6.75;;;1.88;;
16770;SDS011;8503;52.472;13.344;2023-04-25T00:49:45;5.43;;;1.55;;
16770;SDS011;8503;52.472;13.344;2023-04-25T00:51:09;3.03;;;1.60;;
16770;SDS011;8503;52.472;13.344;2023-04-25T00:52:37;2.83;;;1.42;;
16770;SDS011;8503;52.472;13.344;2023-04-25T00:54:01;7.00;;;1.92;;
16770;SDS011;8503;52.472;13.344;2023-04-25T00:55:25;3.85;;;1.70;;
16770;SDS011;8503;52.472;13.344;2023-04-25T00:56:48;7.00;;;2.15;;
16770;SDS011;8503;52.472;13.344;2023-04-25T00:58:14;2.60;;;1.65;;
16770;SDS011;8503;52.472;13.344;2023-04-25T00:59:37;7.57;;;1.67;;
16770;SDS011;8503;52.472;13.344;2023-04-25T01:01:01;6.20;;;2.05;;
16770;SDS011;8503;52.472;13.344;2023-04-25T01:02:25;2.92;;;1.70;;
16770;SDS011;8503;52.472;13.344;2023-04-25T01:03:50;5.55;;;1.63;;
16770;SDS011;8503;52.472;13.344;2023-04-25T01:05:14;6.65;;;1.98;;
16770;SDS011;8503;52.472;13.344;2023-04-25T01:06:40;5.30;;;1.80;;
16770;SDS011;8503;52.472;13.344;2023-04-25T01:08:04;4.43;;;1.90;;
16770;SDS011;8503;52.472;13.344;2023-04-25T01:09:28;3.90;;;1.73;;
16770;SDS011;8503;52.472;13.344;2023-04-25T01:10:52;4.43;;;1.77;;
16770;SDS011;8503;52.472;13.344;2023-04-25T01:12:16;7.88;;;1.83;;
16770;SDS011;8503;52.472;13.344;2023-04-25T01:13:39;5.90;;;1.95;;
16770;SDS011;8503;52.472;13.344;2023-04-25T01:15:03;2.65;;;1.80;;
16770;SDS011;8503;52.472;13.344;2023-04-25T01:16:30;5.13;;;1.73;;
16770;SDS011;8503;52.472;13.344;2023-04-25T01:17:54;6.05;;;1.70;;
16770;SDS011;8503;52.472;13.344;2023-04-25T01:19:18;7.60;;;1.55;;
16770;SDS011;8503;52.472;13.344;2023-04-25T01:20:42;6.88;;;2.40;;
16770;SDS011;8503;52.472;13.344;2023-04-25T01:22:07;3.20;;;1.63;;
16770;SDS011;8503;52.472;13.344;2023-04-25T01:23:32;4.97;;;1.88;;
16770;SDS011;8503;52.472;13.344;2023-04-25T01:24:55;5.60;;;2.00;;
16770;SDS011;8503;52.472;13.344;2023-04-25T01:26:19;7.38;;;1.52;;
16770;SDS011;8503;52.472;13.344;2023-04-25T01:27:42;7.32;;;1.95;;
16770;SDS011;8503;52.472;13.344;2023-04-25T01:29:07;3.25;;;1.60;;
16770;SDS011;8503;52.472;13.344;2023-04-25T01:30:31;4.97;;;2.00;;
16770;SDS011;8503;52.472;13.344;2023-04-25T01:31:54;2.85;;;2.10;;
16770;SDS011;8503;52.472;13.344;2023-04-25T01:33:22;5.70;;;1.95;;
16770;SDS011;8503;52.472;13.344;2023-04-25T01:34:46;4.38;;;1.92;;
16770;SDS011;8503;52.472;13.344;2023-04-25T01:36:09;5.13;;;1.95;;
16770;SDS011;8503;52.472;13.344;2023-04-25T01:37:34;4.07;;;1.90;;
16770;SDS011;8503;52.472;13.344;2023-04-25T01:38:57;4.65;;;1.95;;
16770;SDS011;8503;52.472;13.344;2023-04-25T01:40:21;6.63;;;2.20;;
16770;SDS011;8503;52.472;13.344;2023-04-25T01:41:45;3.45;;;1.73;;
16770;SDS011;8503;52.472;13.344;2023-04-25T01:43:09;2.85;;;1.80;;
16770;SDS011;8503;52.472;13.344;2023-04-25T01:44:34;5.30;;;1.65;;
16770;SDS011;8503;52.472;13.344;2023-04-25T01:45:57;2.30;;;1.65;;
16770;SDS011;8503;52.472;13.344;2023-04-25T01:47:22;3.83;;;1.73;;
16770;SDS011;8503;52.472;13.344;2023-04-25T01:48:45;2.92;;;1.80;;
16770;SDS011;8503;52.472;13.344;2023-04-25T01:50:10;6.38;;;1.90;;
16770;SDS011;8503;52.472;13.344;2023-04-25T01:51:34;9.27;;;1.95;;
16770;SDS011;8503;52.472;13.344;2023-04-25T01:52:58;3.83;;;1.75;;
16770;SDS011;8503;52.472;13.344;2023-04-25T01:54:23;6.68;;;1.75;;
16770;SDS011;8503;52.472;13.344;2023-04-25T01:55:46;2.88;;;1.30;;
16770;SDS011;8503;52.472;13.344;2023-04-25T01:57:09;3.30;;;1.73;;
16770;SDS011;8503;52.472;13.344;2023-04-25T01:58:35;2.92;;;1.83;;
16770;SDS011;8503;52.472;13.344;2023-04-25T01:59:59;6.03;;;2.28;;
16770;SDS011;8503;52.472;13.344;2023-04-25T02:01:24;4.57;;;1.73;;
16770;SDS011;8503;52.472;13.344;2023-04-25T02:02:47;6.25;;;2.03;;
16770;SDS011;8503;52.472;13.344;2023-04-25T02:04:12;6.05;;;2.28;;
16770;SDS011;8503;52.472;13.344;2023-04-25T02:05:36;2.33;;;1.80;;
16770;SDS011;8503;52.472;13.344;2023-04-25T02:07:00;6.43;;;2.28;;
16770;SDS011;8503;52.472;13.344;2023-04-25T02:08:24;3.70;;;1.88;;
16770;SDS011;8503;52.472;13.344;2023-04-25T02:09:48;6.35;;;2.33;;
16770;SDS011;8503;52.472;13.344;2023-04-25T02:11:10;5.97;;;2.28;;
16770;SDS011;8503;52.472;13.344;2023-04-25T02:12:35;8.10;;;2.22;;
16770;SDS011;8503;52.472;13.344;2023-04-25T02:13:57;6.30;;;2.00;;
16770;SDS011;8503;52.472;13.344;2023-04-25T02:15:21;4.45;;;1.70;;
16770;SDS011;8503;52.472;13.344;2023-04-25T02:16:44;5.47;;;2.53;;
16770;SDS011;8503;52.472;13.344;2023-04-25T02:18:11;3.72;;;2.05;;
16770;SDS011;8503;52.472;13.344;2023-04-25T02:19:37;3.17;;;1.80;;
16770;SDS011;8503;52.472;13.344;2023-04-25T02:21:01;6.43;;;2.10;;
16770;SDS011;8503;52.472;13.344;2023-04-25T02:22:25;4.15;;;1.80;;
16770;SDS011;8503;52.472;13.344;2023-04-25T02:23:54;2.42;;;1.92;;
16770;SDS011;8503;52.472;13.344;2023-04-25T02:25:17;5.95;;;2.20;;
16770;SDS011;8503;52.472;13.344;2023-04-25T02:26:41;5.32;;;2.20;;
16770;SDS011;8503;52.472;13.344;2023-04-25T02:28:05;4.03;;;2.28;;
16770;SDS011;8503;52.472;13.344;2023-04-25T02:29:31;5.88;;;2.80;;
16770;SDS011;8503;52.472;13.344;2023-04-25T02:30:55;5.40;;;2.40;;
16770;SDS011;8503;52.472;13.344;2023-04-25T02:32:19;4.80;;;2.10;;
16770;SDS011;8503;52.472;13.344;2023-04-25T02:33:45;7.60;;;2.38;;
16770;SDS011;8503;52.472;13.344;2023-04-25T02:35:16;5.00;;;2.45;;
16770;SDS011;8503;52.472;13.344;2023-04-25T02:36:40;5.55;;;1.90;;
16770;SDS011;8503;52.472;13.344;2023-04-25T02:38:02;4.28;;;2.28;;
16770;SDS011;8503;52.472;13.344;2023-04-25T02:39:27;4.90;;;2.20;;
16770;SDS011;8503;52.472;13.344;2023-04-25T02:40:52;9.10;;;2.92;;
16770;SDS011;8503;52.472;13.344;2023-04-25T02:42:14;5.60;;;2.40;;
16770;SDS011;8503;52.472;13.344;2023-04-25T02:43:38;14.45;;;2.60;;
16770;SDS011;8503;52.472;13.344;2023-04-25T02:45:01;4.18;;;2.15;;
16770;SDS011;8503;52.472;13.344;2023-04-25T02:46:25;5.57;;;2.50;;
16770;SDS011;8503;52.472;13.344;2023-04-25T02:48:02;5.90;;;2.60;;
16770;SDS011;8503;52.472;13.344;2023-04-25T02:49:25;6.88;;;2.72;;
16770;SDS011;8503;52.472;13.344;2023-04-25T02:50:49;2.97;;;2.15;;
16770;SDS011;8503;52.472;13.344;2023-04-25T02:52:13;4.70;;;2.33;;
16770;SDS011;8503;52.472;13.344;2023-04-25T02:53:37;6.15;;;2.78;;
16770;SDS011;8503;52.472;13.344;2023-04-25T02:55:04;3.33;;;2.22;;
16770;SDS011;8503;52.472;13.344;2023-04-25T02:56:28;5.28;;;2.75;;
16770;SDS011;8503;52.472;13.344;2023-04-25T02:57:53;7.43;;;2.40;;
16770;SDS011;8503;52.472;13.344;2023-04-25T02:59:16;5.95;;;2.45;;
16770;SDS011;8503;52.472;13.344;2023-04-25T03:00:40;10.57;;;2.65;;
16770;SDS011;8503;52.472;13.344;2023-04-25T03:02:02;6.53;;;2.60;;
16770;SDS011;8503;52.472;13.344;2023-04-25T03:03:26;8.85;;;2.72;;
16770;SDS011;8503;52.472;13.344;2023-04-25T03:04:49;7.65;;;2.58;;
16770;SDS011;8503;52.472;13.344;2023-04-25T03:06:13;5.93;;;2.60;;
16770;SDS011;8503;52.472;13.344;2023-04-25T03:07:39;3.97;;;2.20;;
16770;SDS011;8503;52.472;13.344;2023-04-25T03:09:05;8.88;;;2.63;;
16770;SDS011;8503;52.472;13.344;2023-04-25T03:10:28;7.05;;;2.58;;
16770;SDS011;8503;52.472;13.344;2023-04-25T03:11:52;8.02;;;2.75;;
16770;SDS011;8503;52.472;13.344;2023-04-25T03:13:17;6.28;;;2.58;;
16770;SDS011;8503;52.472;13.344;2023-04-25T03:14:41;7.88;;;2.58;;
16770;SDS011;8503;52.472;13.344;2023-04-25T03:16:05;6.85;;;2.72;;
16770;SDS011;8503;52.472;13.344;2023-04-25T03:17:28;7.90;;;2.40;;
16770;SDS011;8503;52.472;13.344;2023-04-25T03:18:51;6.60;;;2.50;;
16770;SDS011;8503;52.472;13.344;2023-04-25T03:20:18;5.38;;;2.10;;
16770;SDS011;8503;52.472;13.344;2023-04-25T03:21:40;11.02;;;2.65;;
16770;SDS011;8503;52.472;13.344;2023-04-25T03:23:04;4.75;;;2.20;;
16770;SDS011;8503;52.472;13.344;2023-04-25T03:24:26;4.03;;;2.90;;
16770;SDS011;8503;52.472;13.344;2023-04-25T03:25:51;6.38;;;2.90;;
16770;SDS011;8503;52.472;13.344;2023-04-25T03:27:14;5.90;;;2.47;;
16770;SDS011;8503;52.472;13.344;2023-04-25T03:28:37;8.75;;;2.88;;
16770;SDS011;8503;52.472;13.344;2023-04-25T03:30:01;10.32;;;2.42;;
16770;SDS011;8503;52.472;13.344;2023-04-25T03:31:26;5.85;;;2.38;;
16770;SDS011;8503;52.472;13.344;2023-04-25T03:32:49;10.25;;;3.33;;
16770;SDS011;8503;52.472;13.344;2023-04-25T03:34:13;5.50;;;2.38;;
16770;SDS011;8503;52.472;13.344;2023-04-25T03:35:36;3.53;;;2.47;;
16770;SDS011;8503;52.472;13.344;2023-04-25T03:37:08;8.35;;;2.75;;
16770;SDS011;8503;52.472;13.344;2023-04-25T03:38:32;5.00;;;2.30;;
16770;SDS011;8503;52.472;13.344;2023-04-25T03:39:55;6.28;;;2.75;;
16770;SDS011;8503;52.472;13.344;2023-04-25T03:41:20;8.60;;;2.50;;
16770;SDS011;8503;52.472;13.344;2023-04-25T03:42:43;8.10;;;2.50;;
16770;SDS011;8503;52.472;13.344;2023-04-25T03:44:07;7.78;;;3.05;;
16770;SDS011;8503;52.472;13.344;2023-04-25T03:45:36;8.52;;;2.65;;
16770;SDS011;8503;52.472;13.344;2023-04-25T03:47:00;3.92;;;2.38;;
16770;SDS011;8503;52.472;13.344;2023-04-25T03:48:23;6.70;;;2.92;;
16770;SDS011;8503;52.472;13.344;2023-04-25T03:49:47;4.65;;;2.85;;
16770;SDS011;8503;52.472;13.344;2023-04-25T03:51:13;8.85;;;3.00;;
16770;SDS011;8503;52.472;13.344;2023-04-25T03:52:36;7.40;;;2.60;;
16770;SDS011;8503;52.472;13.344;2023-04-25T03:53:59;6.45;;;2.50;;
16770;SDS011;8503;52.472;13.344;2023-04-25T03:55:23;9.75;;;3.08;;
16770;SDS011;8503;52.472;13.344;2023-04-25T03:56:48;3.65;;;2.47;;
16770;SDS011;8503;52.472;13.344;2023-04-25T03:58:11;4.97;;;2.80;;
16770;SDS011;8503;52.472;13.344;2023-04-25T03:59:35;4.47;;;2.08;;
16770;SDS011;8503;52.472;13.344;2023-04-25T04:00:58;7.38;;;2.50;;
16770;SDS011;8503;52.472;13.344;2023-04-25T04:02:24;5.65;;;2.55;;
16770;SDS011;8503;52.472;13.344;2023-04-25T04:03:47;6.18;;;3.00;;
16770;SDS011;8503;52.472;13.344;2023-04-25T04:05:11;8.27;;;2.85;;
16770;SDS011;8503;52.472;13.344;2023-04-25T04:06:35;6.97;;;2.67;;
16770;SDS011;8503;52.472;13.344;2023-04-25T04:07:59;9.35;;;2.80;;
16770;SDS011;8503;52.472;13.344;2023-04-25T04:09:21;5.95;;;2.53;;
16770;SDS011;8503;52.472;13.344;2023-04-25T04:10:45;5.43;;;2.70;;
16770;SDS011;8503;52.472;13.344;2023-04-25T04:12:09;8.52;;;2.55;;
16770;SDS011;8503;52.472;13.344;2023-04-25T04:13:32;3.92;;;2.42;;
16770;SDS011;8503;52.472;13.344;2023-04-25T04:14:59;3.08;;;2.10;;
16770;SDS011;8503;52.472;13.344;2023-04-25T04:16:24;5.93;;;2.50;;
16770;SDS011;8503;52.472;13.344;2023-04-25T04:17:48;3.28;;;2.15;;
16770;SDS011;8503;52.472;13.344;2023-04-25T04:19:12;6.07;;;2.70;;
16770;SDS011;8503;52.472;13.344;2023-04-25T04:20:36;5.40;;;2.80;;
16770;SDS011;8503;52.472;13.344;2023-04-25T04:22:03;5.32;;;2.17;;
16770;SDS011;8503;52.472;13.344;2023-04-25T04:23:25;9.20;;;2.65;;
16770;SDS011;8503;52.472;13.344;2023-04-25T04:24:49;4.35;;;2.63;;
16770;SDS011;8503;52.472;13.344;2023-04-25T04:26:18;6.25;;;2.50;;
16770;SDS011;8503;52.472;13.344;2023-04-25T04:27:46;5.70;;;2.83;;
16770;SDS011;8503;52.472;13.344;2023-04-25T04:29:08;9.75;;;2.47;;
16770;SDS011;8503;52.472;13.344;2023-04-25T04:30:32;10.20;;;2.65;;
16770;SDS011;8503;52.472;13.344;2023-04-25T04:31:57;5.20;;;2.53;;
16770;SDS011;8503;52.472;13.344;2023-04-25T04:33:22;5.90;;;3.05;;
16770;SDS011;8503;52.472;13.344;2023-04-25T04:34:51;9.57;;;2.97;;
16770;SDS011;8503;52.472;13.344;2023-04-25T04:36:23;8.52;;;2.80;;
16770;SDS011;8503;52.472;13.344;2023-04-25T04:37:47;6.43;;;2.97;;
16770;SDS011;8503;52.472;13.344;2023-04-25T04:39:14;8.98;;;2.70;;
16770;SDS011;8503;52.472;13.344;2023-04-25T04:40:38;5.28;;;2.40;;
16770;SDS011;8503;52.472;13.344;2023-04-25T04:42:02;9.30;;;2.65;;
16770;SDS011;8503;52.472;13.344;2023-04-25T04:43:29;10.73;;;3.67;;
16770;SDS011;8503;52.472;13.344;2023-04-25T04:44:57;6.55;;;2.65;;
16770;SDS011;8503;52.472;13.344;2023-04-25T04:46:23;8.82;;;2.67;;
16770;SDS011;8503;52.472;13.344;2023-04-25T04:47:46;4.35;;;2.58;;
16770;SDS011;8503;52.472;13.344;2023-04-25T04:49:12;3.25;;;2.15;;
16770;SDS011;8503;52.472;13.344;2023-04-25T04:50:39;6.40;;;2.47;;
16770;SDS011;8503;52.472;13.344;2023-04-25T04:52:03;6.05;;;2.63;;
16770;SDS011;8503;52.472;13.344;2023-04-25T04:53:27;6.30;;;2.75;;
16770;SDS011;8503;52.472;13.344;2023-04-25T04:54:50;8.30;;;2.70;;
16770;SDS011;8503;52.472;13.344;2023-04-25T04:56:15;7.90;;;2.60;;
16770;SDS011;8503;52.472;13.344;2023-04-25T04:57:38;4.38;;;2.60;;
16770;SDS011;8503;52.472;13.344;2023-04-25T04:59:03;4.10;;;2.65;;
16770;SDS011;8503;52.472;13.344;2023-04-25T05:00:28;3.50;;;2.22;;
16770;SDS011;8503;52.472;13.344;2023-04-25T05:01:52;7.00;;;2.70;;
16770;SDS011;8503;52.472;13.344;2023-04-25T05:03:14;4.63;;;2.50;;
16770;SDS011;8503;52.472;13.344;2023-04-25T05:04:41;7.70;;;3.15;;
16770;SDS011;8503;52.472;13.344;2023-04-25T05:06:04;4.72;;;2.40;;
16770;SDS011;8503;52.472;13.344;2023-04-25T05:07:28;4.07;;;2.58;;
16770;SDS011;8503;52.472;13.344;2023-04-25T05:08:50;10.63;;;3.00;;
16770;SDS011;8503;52.472;13.344;2023-04-25T05:10:14;11.93;;;2.58;;
16770;SDS011;8503;52.472;13.344;2023-04-25T05:11:38;11.73;;;3.00;;
16770;SDS011;8503;52.472;13.344;2023-04-25T05:13:01;5.90;;;2.80;;
16770;SDS011;8503;52.472;13.344;2023-04-25T05:14:25;5.55;;;2.63;;
16770;SDS011;8503;52.472;13.344;2023-04-25T05:15:49;8.68;;;3.10;;
16770;SDS011;8503;52.472;13.344;2023-04-25T05:17:12;8.30;;;2.67;;
16770;SDS011;8503;52.472;13.344;2023-04-25T05:18:35;5.20;;;2.45;;
16770;SDS011;8503;52.472;13.344;2023-04-25T05:20:02;8.40;;;3.30;;
16770;SDS011;8503;52.472;13.344;2023-04-25T05:21:26;8.13;;;2.88;;
16770;SDS011;8503;52.472;13.344;2023-04-25T05:22:50;6.30;;;2.63;;
16770;SDS011;8503;52.472;13.344;2023-04-25T05:24:14;7.40;;;2.83;;
16770;SDS011;8503;52.472;13.344;2023-04-25T05:25:38;7.65;;;3.08;;
16770;SDS011;8503;52.472;13.344;2023-04-25T05:27:01;7.07;;;3.47;;
16770;SDS011;8503;52.472;13.344;2023-04-25T05:28:26;6.88;;;2.78;;
16770;SDS011;8503;52.472;13.344;2023-04-25T05:29:51;7.10;;;2.78;;
16770;SDS011;8503;52.472;13.344;2023-04-25T05:31:15;10.20;;;3.42;;
16770;SDS011;8503;52.472;13.344;2023-04-25T05:32:42;6.18;;;2.35;;
16770;SDS011;8503;52.472;13.344;2023-04-25T05:34:06;2.78;;;2.40;;
16770;SDS011;8503;52.472;13.344;2023-04-25T05:35:30;6.35;;;2.72;;
16770;SDS011;8503;52.472;13.344;2023-04-25T05:36:53;5.95;;;2.53;;
16770;SDS011;8503;52.472;13.344;2023-04-25T05:38:22;6.55;;;3.42;;
16770;SDS011;8503;52.472;13.344;2023-04-25T05:39:46;6.25;;;2.67;;
16770;SDS011;8503;52.472;13.344;2023-04-25T05:41:09;8.55;;;2.33;;
16770;SDS011;8503;52.472;13.344;2023-04-25T05:42:35;7.07;;;2.67;;
16770;SDS011;8503;52.472;13.344;2023-04-25T05:44:06;5.13;;;2.83;;
16770;SDS011;8503;52.472;13.344;2023-04-25T05:45:33;5.15;;;2.78;;
16770;SDS011;8503;52.472;13.344;2023-04-25T05:47:01;6.50;;;2.60;;
16770;SDS011;8503;52.472;13.344;2023-04-25T05:48:26;7.07;;;2.72;;
16770;SDS011;8503;52.472;13.344;2023-04-25T05:49:52;16.27;;;3.45;;
16770;SDS011;8503;52.472;13.344;2023-04-25T05:51:15;5.90;;;2.58;;
16770;SDS011;8503;52.472;13.344;2023-04-25T05:52:44;9.77;;;2.58;;
16770;SDS011;8503;52.472;13.344;2023-04-25T05:54:28;5.50;;;2.80;;
16770;SDS011;8503;52.472;13.344;2023-04-25T05:55:51;4.97;;;2.92;;
16770;SDS011;8503;52.472;13.344;2023-04-25T05:57:23;10.05;;;3.13;;
16770;SDS011;8503;52.472;13.344;2023-04-25T05:58:51;5.22;;;2.90;;
16770;SDS011;8503;52.472;13.344;2023-04-25T06:00:15;4.78;;;2.67;;
16770;SDS011;8503;52.472;13.344;2023-04-25T06:01:47;6.00;;;3.10;;
16770;SDS011;8503;52.472;13.344;2023-04-25T06:03:11;9.65;;;3.40;;
16770;SDS011;8503;52.472;13.344;2023-04-25T06:04:40;5.80;;;3.08;;
16770;SDS011;8503;52.472;13.344;2023-04-25T06:06:04;9.57;;;3.13;;
16770;SDS011;8503;52.472;13.344;2023-04-25T06:07:28;10.27;;;3.72;;
16770;SDS011;8503;52.472;13.344;2023-04-25T06:08:52;6.57;;;3.05;;
16770;SDS011;8503;52.472;13.344;2023-04-25T06:10:16;7.28;;;2.92;;
16770;SDS011;8503;52.472;13.344;2023-04-25T06:11:40;11.07;;;3.85;;
16770;SDS011;8503;52.472;13.344;2023-04-25T06:13:03;7.88;;;3.42;;
16770;SDS011;8503;52.472;13.344;2023-04-25T06:14:27;8.85;;;3.20;;
16770;SDS011;8503;52.472;13.344;2023-04-25T06:15:51;8.85;;;3.40;;
16770;SDS011;8503;52.472;13.344;2023-04-25T06:17:16;13.63;;;3.15;;
16770;SDS011;8503;52.472;13.344;2023-04-25T06:18:40;8.82;;;3.80;;
16770;SDS011;8503;52.472;13.344;2023-04-25T06:20:04;8.95;;;2.97;;
16770;SDS011;8503;52.472;13.344;2023-04-25T06:21:29;7.95;;;3.40;;
16770;SDS011;8503;52.472;13.344;2023-04-25T06:22:53;6.93;;;2.97;;
16770;SDS011;8503;52.472;13.344;2023-04-25T06:24:17;6.00;;;3.30;;
16770;SDS011;8503;52.472;13.344;2023-04-25T06:25:43;6.68;;;3.22;;
16770;SDS011;8503;52.472;13.344;2023-04-25T06:27:07;4.90;;;2.90;;
16770;SDS011;8503;52.472;13.344;2023-04-25T06:28:30;5.90;;;3.13;;
16770;SDS011;8503;52.472;13.344;2023-04-25T06:29:53;6.55;;;3.08;;
16770;SDS011;8503;52.472;13.344;2023-04-25T06:31:16;9.02;;;3.17;;
16770;SDS011;8503;52.472;13.344;2023-04-25T06:32:44;4.78;;;2.95;;
16770;SDS011;8503;52.472;13.344;2023-04-25T06:34:07;6.32;;;3.45;;
16770;SDS011;8503;52.472;13.344;2023-04-25T06:35:32;8.88;;;3.60;;
16770;SDS011;8503;52.472;13.344;2023-04-25T06:36:56;5.75;;;2.92;;
16770;SDS011;8503;52.472;13.344;2023-04-25T06:38:19;7.55;;;3.05;;
16770;SDS011;8503;52.472;13.344;2023-04-25T06:39:42;5.80;;;2.78;;
16770;SDS011;8503;52.472;13.344;2023-04-25T06:41:06;6.15;;;3.53;;
16770;SDS011;8503;52.472;13.344;2023-04-25T06:42:32;10.10;;;3.33;;
16770;SDS011;8503;52.472;13.344;2023-04-25T06:43:56;9.43;;;3.22;;
16770;SDS011;8503;52.472;13.344;2023-04-25T06:45:19;6.05;;;2.85;;
16770;SDS011;8503;52.472;13.344;2023-04-25T06:46:43;5.20;;;2.90;;
16770;SDS011;8503;52.472;13.344;2023-04-25T06:48:08;4.55;;;2.90;;
16770;SDS011;8503;52.472;13.344;2023-04-25T06:49:32;7.57;;;2.70;;
16770;SDS011;8503;52.472;13.344;2023-04-25T06:50:55;5.25;;;2.65;;
16770;SDS011;8503;52.472;13.344;2023-04-25T06:52:19;6.13;;;3.05;;
16770;SDS011;8503;52.472;13.344;2023-04-25T06:53:42;8.15;;;3.53;;
16770;SDS011;8503;52.472;13.344;2023-04-25T06:55:10;6.20;;;2.92;;
16770;SDS011;8503;52.472;13.344;2023-04-25T06:56:33;8.30;;;2.90;;
16770;SDS011;8503;52.472;13.344;2023-04-25T06:57:56;5.90;;;2.72;;
16770;SDS011;8503;52.472;13.344;2023-04-25T06:59:21;6.93;;;2.88;;
16770;SDS011;8503;52.472;13.344;2023-04-25T07:00:45;6.75;;;2.35;;
16770;SDS011;8503;52.472;13.344;2023-04-25T07:02:09;6.88;;;2.90;;
16770;SDS011;8503;52.472;13.344;2023-04-25T07:03:34;10.48;;;3.10;;
16770;SDS011;8503;52.472;13.344;2023-04-25T07:04:59;5.75;;;2.58;;
16770;SDS011;8503;52.472;13.344;2023-04-25T07:06:22;5.65;;;2.88;;
16770;SDS011;8503;52.472;13.344;2023-04-25T07:07:47;6.63;;;2.63;;
16770;SDS011;8503;52.472;13.344;2023-04-25T07:09:10;8.77;;;2.50;;
16770;SDS011;8503;52.472;13.344;2023-04-25T07:10:34;4.18;;;2.75;;
16770;SDS011;8503;52.472;13.344;2023-04-25T07:11:59;7.10;;;2.60;;
16770;SDS011;8503;52.472;13.344;2023-04-25T07:13:24;5.43;;;2.55;;
16770;SDS011;8503;52.472;13.344;2023-04-25T07:14:49;4.68;;;2.45;;
16770;SDS011;8503;52.472;13.344;2023-04-25T07:16:12;5.63;;;3.00;;
16770;SDS011;8503;52.472;13.344;2023-04-25T07:17:36;7.10;;;2.58;;
16770;SDS011;8503;52.472;13.344;2023-04-25T07:19:01;4.28;;;3.00;;
16770;SDS011;8503;52.472;13.344;2023-04-25T07:20:24;5.40;;;2.58;;
16770;SDS011;8503;52.472;13.344;2023-04-25T07:21:49;9.20;;;2.67;;
16770;SDS011;8503;52.472;13.344;2023-04-25T07:23:14;4.32;;;2.30;;
16770;SDS011;8503;52.472;13.344;2023-04-25T07:24:40;5.72;;;2.83;;
16770;SDS011;8503;52.472;13.344;2023-04-25T07:26:03;5.03;;;2.53;;
16770;SDS011;8503;52.472;13.344;2023-04-25T07:27:27;7.55;;;2.60;;
16770;SDS011;8503;52.472;13.344;2023-04-25T07:28:51;4.13;;;2.15;;
16770;SDS011;8503;52.472;13.344;2023-04-25T07:30:15;7.10;;;3.08;;
16770;SDS011;8503;52.472;13.344;2023-04-25T07:31:39;5.82;;;2.38;;
16770;SDS011;8503;52.472;13.344;2023-04-25T07:33:03;8.63;;;3.20;;
16770;SDS011;8503;52.472;13.344;2023-04-25T07:34:28;10.18;;;3.22;;
16770;SDS011;8503;52.472;13.344;2023-04-25T07:35:51;7.95;;;2.80;;
16770;SDS011;8503;52.472;13.344;2023-04-25T07:37:15;9.40;;;2.58;;
16770;SDS011;8503;52.472;13.344;2023-04-25T07:38:40;9.68;;;3.15;;
16770;SDS011;8503;52.472;13.344;2023-04-25T07:40:03;8.10;;;3.17;;
16770;SDS011;8503;52.472;13.344;2023-04-25T07:41:29;5.65;;;2.42;;
16770;SDS011;8503;52.472;13.344;2023-04-25T07:42:52;5.60;;;2.53;;
16770;SDS011;8503;52.472;13.344;2023-04-25T07:44:16;8.07;;;2.75;;
16770;SDS011;8503;52.472;13.344;2023-04-25T07:45:39;6.30;;;2.45;;
16770;SDS011;8503;52.472;13.344;2023-04-25T07:47:04;6.78;;;2.67;;
16770;SDS011;8503;52.472;13.344;2023-04-25T07:48:29;8.05;;;2.75;;
16770;SDS011;8503;52.472;13.344;2023-04-25T07:49:56;14.63;;;3.17;;
16770;SDS011;8503;52.472;13.344;2023-04-25T07:51:21;11.50;;;2.85;;
16770;SDS011;8503;52.472;13.344;2023-04-25T07:52:44;6.35;;;2.70;;
16770;SDS011;8503;52.472;13.344;2023-04-25T07:54:08;9.93;;;2.38;;
16770;SDS011;8503;52.472;13.344;2023-04-25T07:55:31;11.00;;;2.80;;
16770;SDS011;8503;52.472;13.344;2023-04-25T07:56:55;9.70;;;3.15;;
16770;SDS011;8503;52.472;13.344;2023-04-25T07:58:19;11.63;;;2.83;;
16770;SDS011;8503;52.472;13.344;2023-04-25T07:59:43;13.60;;;2.97;;
16770;SDS011;8503;52.472;13.344;2023-04-25T08:01:07;9.55;;;2.78;;
16770;SDS011;8503;52.472;13.344;2023-04-25T08:02:33;10.90;;;2.65;;
16770;SDS011;8503;52.472;13.344;2023-04-25T08:03:56;9.23;;;2.85;;
16770;SDS011;8503;52.472;13.344;2023-04-25T08:05:22;8.23;;;2.63;;
16770;SDS011;8503;52.472;13.344;2023-04-25T08:06:46;11.25;;;2.85;;
16770;SDS011;8503;52.472;13.344;2023-04-25T08:08:10;9.60;;;2.90;;
16770;SDS011;8503;52.472;13.344;2023-04-25T08:09:33;6.28;;;2.55;;
16770;SDS011;8503;52.472;13.344;2023-04-25T08:10:58;9.20;;;3.00;;
16770;SDS011;8503;52.472;13.344;2023-04-25T08:12:23;10.60;;;3.40;;
16770;SDS011;8503;52.472;13.344;2023-04-25T08:13:47;3.95;;;2.17;;
16770;SDS011;8503;52.472;13.344;2023-04-25T08:15:11;20.20;;;2.67;;
16770;SDS011;8503;52.472;13.344;2023-04-25T08:16:35;7.88;;;2.47;;
16770;SDS011;8503;52.472;13.344;2023-04-25T08:17:59;14.77;;;2.53;;
16770;SDS011;8503;52.472;13.344;2023-04-25T08:19:23;12.15;;;2.50;;
16770;SDS011;8503;52.472;13.344;2023-04-25T08:20:48;12.27;;;2.63;;
16770;SDS011;8503;52.472;13.344;2023-04-25T08:22:12;8.48;;;3.10;;
16770;SDS011;8503;52.472;13.344;2023-04-25T08:23:36;10.80;;;2.78;;
16770;SDS011;8503;52.472;13.344;2023-04-25T08:24:59;16.20;;;3.75;;
16770;SDS011;8503;52.472;13.344;2023-04-25T08:26:23;13.25;;;2.78;;
16770;SDS011;8503;52.472;13.344;2023-04-25T08:27:46;11.95;;;2.72;;